Alfred, New York
Current Conditions -  °F | °C
As of 11:56 AM on Wednesday 26 Nov 2014 (Local Time) from KELZ Reporting Station
Light Snow Light Snow  
Wind Chill: 25°   Ceiling: 2100
Heat Index: 30°   Visibility: 4mi
Dew Point: 23°   Wind: 5mph
Humidity: 75%   Direction: 140°SE
Pressure: 30.05"   Gusts: NA
Location:  42.25°N, 77.79°W
Report Text: KELZ 261656Z AUTO 14004KT 4SM -SN OVC021 M01/M05 A3005 RMK AO2 SNB1559 SLP199 P0000 T10111050
Loading
Personal Weather Stations






























Interactive Weather Map New forecast layout! Learn more

10-Day Weather Forecast

Advertisements
Track Severe Weather on mobile